createdAt,value
2018-09-24T00:04:05.955Z,100338.41
2018-09-24T00:08:48.825Z,100335.37
2018-09-24T00:13:31.888Z,100331.59
2018-09-24T00:18:14.741Z,100330.62
2018-09-24T00:22:57.674Z,100324.89
2018-09-24T00:27:40.491Z,100318.55
2018-09-24T00:32:23.438Z,100311.04
2018-09-24T00:37:06.366Z,100306.41
2018-09-24T00:41:49.578Z,100298.61
2018-09-24T00:46:32.502Z,100284.77
2018-09-24T00:51:15.366Z,100279.78
2018-09-24T00:55:58.748Z,100273.34
2018-09-24T01:00:41.706Z,100262.14
2018-09-24T01:05:24.872Z,100257.77
2018-09-24T01:10:08.215Z,100253.98
2018-09-24T01:23:50.093Z,100235.62
2018-09-24T01:28:32.983Z,100234.29
2018-09-24T01:33:16.130Z,100230.53
2018-09-24T01:37:58.982Z,100220.56
2018-09-24T01:42:42.499Z,100214.73
2018-09-24T01:47:25.350Z,100216.30
2018-09-24T01:52:10.523Z,100209.50
2018-09-24T01:56:53.360Z,100202.17
2018-09-24T02:01:37.829Z,100186.27
2018-09-24T02:06:20.685Z,100177.66
2018-09-24T02:11:03.584Z,100177.78
2018-09-24T02:15:48.602Z,100168.98
2018-09-24T02:20:31.535Z,100164.52
2018-09-24T02:25:15.502Z,100165.11
2018-09-24T02:29:58.350Z,100163.31
2018-09-24T02:34:42.405Z,100164.17
2018-09-24T02:39:25.263Z,100147.74
2018-09-24T02:44:08.592Z,100151.75
2018-09-24T02:48:51.417Z,100143.10
2018-09-24T02:53:38.846Z,100136.69
2018-09-24T02:58:21.733Z,100131.72
2018-09-24T03:03:10.759Z,100129.63
2018-09-24T03:07:53.641Z,100124.54
2018-09-24T03:12:37.913Z,100123.94
2018-09-24T03:17:20.946Z,100121.48
2018-09-24T03:22:03.873Z,100119.56
2018-09-24T03:26:46.820Z,100116.87
2018-09-24T03:31:35.991Z,100105.81
2018-09-24T03:36:18.813Z,100099.57
2018-09-24T03:41:01.648Z,100094.61
2018-09-24T03:45:45.717Z,100095.21
2018-09-24T03:50:28.569Z,100091.63
2018-09-24T03:55:12.534Z,100079.58
2018-09-24T03:59:55.498Z,100074.97
2018-09-24T04:04:43.998Z,100078.50
2018-09-24T04:09:32.415Z,100081.23
2018-09-24T04:14:20.769Z,100075.41
2018-09-24T04:19:08.980Z,100069.07
2018-09-24T04:24:06.628Z,100066.05
2018-09-24T04:28:54.954Z,100062.55
2018-09-24T04:33:44.398Z,100059.53
2018-09-24T04:38:32.705Z,100064.26
2018-09-24T04:43:21.095Z,100056.84
2018-09-24T04:48:09.482Z,100047.72
2018-09-24T04:52:57.941Z,100055.14
2018-09-24T04:57:47.722Z,100038.23
2018-09-24T05:02:38.200Z,100031.03
2018-09-24T05:07:26.649Z,100020.59
2018-09-24T05:12:15.023Z,100016.31
2018-09-24T05:17:08.086Z,100020.16
2018-09-24T05:22:00.803Z,100011.55
2018-09-24T05:26:49.115Z,100011.22
2018-09-24T05:31:38.601Z,100006.16
2018-09-24T05:36:27.067Z,100001.75
2018-09-24T05:41:17.682Z,99990.64
2018-09-24T05:46:05.941Z,99987.38
2018-09-24T05:50:54.323Z,99976.41
2018-09-24T05:55:45.512Z,99980.04
2018-09-24T06:00:33.862Z,99977.08
2018-09-24T06:05:22.850Z,99962.06
2018-09-24T06:10:11.301Z,99962.44
2018-09-24T06:14:59.905Z,99958.94
2018-09-24T06:19:48.435Z,99952.59
2018-09-24T06:24:36.778Z,99955.94
2018-09-24T06:29:25.145Z,99955.69
2018-09-24T06:34:15.562Z,99952.86
2018-09-24T06:39:04.107Z,99945.13
2018-09-24T06:43:52.782Z,99937.70
2018-09-24T06:48:41.039Z,99935.14
2018-09-24T06:53:30.516Z,99931.55
2018-09-24T06:58:20.818Z,99931.02
2018-09-24T07:03:09.591Z,99920.53
2018-09-24T07:07:57.921Z,99921.66
2018-09-24T07:12:48.495Z,99907.66
2018-09-24T07:17:36.893Z,99909.70
2018-09-24T07:22:25.409Z,99896.30
2018-09-24T07:27:13.701Z,99895.75
2018-09-24T07:32:03.071Z,99891.88
2018-09-24T07:36:51.403Z,99887.55
2018-09-24T07:41:40.871Z,99889.39
2018-09-24T07:46:29.250Z,99889.56
2018-09-24T07:51:17.866Z,99883.12
2018-09-24T07:56:08.398Z,99884.14
2018-09-24T08:00:57.944Z,99873.23
2018-09-24T08:05:46.263Z,99861.54
2018-09-24T08:10:34.550Z,99859.22
2018-09-24T08:15:22.909Z,99856.31
2018-09-24T08:20:11.463Z,99849.41
2018-09-24T08:24:59.894Z,99836.63
2018-09-24T08:29:48.322Z,99829.68
2018-09-24T08:34:37.751Z,99826.30
2018-09-24T08:39:26.160Z,99815.84
2018-09-24T08:44:14.717Z,99805.21
2018-09-24T08:49:03.207Z,99808.25
2018-09-24T08:53:51.598Z,99796.28
2018-09-24T08:58:42.043Z,99776.02
2018-09-24T09:03:31.373Z,99774.02
2018-09-24T09:08:19.918Z,99771.48
2018-09-24T09:13:09.727Z,99761.95
2018-09-24T09:17:59.809Z,99755.89
2018-09-24T09:22:48.258Z,99753.93
2018-09-24T09:27:48.876Z,99753.42
2018-09-24T09:32:37.433Z,99733.55
2018-09-24T09:37:26.135Z,99726.14
2018-09-24T09:42:14.567Z,99718.70
2018-09-24T09:48:32.376Z,99708.53
2018-09-24T09:53:23.092Z,99701.69
2018-09-24T09:58:12.175Z,99694.73
2018-09-24T10:03:00.697Z,99682.64
2018-09-24T10:07:49.431Z,99674.52
2018-09-24T10:12:38.664Z,99669.45
2018-09-24T10:17:27.135Z,99666.94
2018-09-24T10:22:16.205Z,99666.63
2018-09-24T10:27:04.533Z,99656.42
2018-09-24T10:31:53.003Z,99652.97
2018-09-24T10:36:41.382Z,99637.80
2018-09-24T10:41:29.620Z,99632.17
2018-09-24T10:46:25.775Z,99618.13
2018-09-24T10:51:18.780Z,99608.94
2018-09-24T10:56:07.091Z,99600.21
2018-09-24T11:00:56.919Z,99604.95
2018-09-24T11:05:45.352Z,99590.84
2018-09-24T11:10:35.797Z,99573.04
2018-09-24T11:15:24.171Z,99593.12
2018-09-24T11:20:14.022Z,99578.35
2018-09-24T11:25:07.375Z,99579.84
2018-09-24T11:29:56.939Z,99578.05
2018-09-24T11:34:45.322Z,99566.80
2018-09-24T11:39:33.807Z,99557.23
2018-09-24T11:44:23.283Z,99551.69
2018-09-24T11:49:11.875Z,99553.84
2018-09-24T11:54:01.038Z,99553.30
2018-09-24T11:58:49.314Z,99543.39
2018-09-24T12:03:37.851Z,99554.22
2018-09-24T12:08:26.590Z,99565.75
2018-09-24T12:13:15.118Z,99550.42
2018-09-24T12:18:03.471Z,99543.83
2018-09-24T12:23:08.988Z,99545.94
2018-09-24T12:28:02.568Z,99532.40
2018-09-24T12:32:51.912Z,99531.47
2018-09-24T12:37:40.717Z,99558.30
2018-09-24T12:42:30.515Z,99554.39
2018-09-24T12:47:19.018Z,99554.64
2018-09-24T12:52:07.457Z,99533.91
2018-09-24T12:56:55.694Z,99540.66
2018-09-24T13:01:43.998Z,99540.59
2018-09-24T13:06:32.361Z,99554.66
2018-09-24T13:11:22.353Z,99556.23
2018-09-24T13:16:10.667Z,99538.39
2018-09-24T13:21:00.621Z,99543.11
2018-09-24T13:25:48.890Z,99548.45
2018-09-24T13:30:38.500Z,99544.13
2018-09-24T13:35:26.950Z,99541.20
2018-09-24T13:40:17.059Z,99540.11
2018-09-24T13:45:05.364Z,99542.47
2018-09-24T13:49:53.924Z,99551.14
2018-09-24T13:54:44.647Z,99561.47
2018-09-24T13:59:33.114Z,99548.42
2018-09-24T14:04:21.443Z,99550.86
2018-09-24T14:09:12.398Z,99552.49
2018-09-24T14:14:01.057Z,99549.41
2018-09-24T14:18:49.391Z,99560.20
2018-09-24T14:23:39.838Z,99571.34
2018-09-24T14:28:28.199Z,99556.08
2018-09-24T14:33:16.599Z,99588.62
2018-09-24T14:38:05.377Z,99590.83
2018-09-24T14:42:53.899Z,99593.14
2018-09-24T14:47:42.418Z,99582.47
2018-09-24T14:52:34.756Z,99585.95
2018-09-24T14:57:23.166Z,99587.86
2018-09-24T15:02:11.574Z,99592.54
2018-09-24T15:06:59.807Z,99599.30
2018-09-24T15:11:51.985Z,99603.66
2018-09-24T15:16:40.662Z,99602.69
2018-09-24T15:21:31.408Z,99609.14
2018-09-24T15:26:19.866Z,99608.61
2018-09-24T15:31:08.322Z,99619.18
2018-09-24T15:36:03.638Z,99632.80
2018-09-24T15:40:53.293Z,99638.79
2018-09-24T15:45:42.159Z,99644.11
2018-09-24T15:50:30.760Z,99653.08
2018-09-24T15:55:20.221Z,99657.19
2018-09-24T16:00:13.260Z,99665.36
2018-09-24T16:05:01.707Z,99664.33
2018-09-24T16:09:52.168Z,99672.64
2018-09-24T16:14:40.549Z,99680.09
2018-09-24T16:19:30.316Z,99687.39
2018-09-24T16:24:18.854Z,99692.85
2018-09-24T16:29:07.329Z,99705.53
2018-09-24T16:33:56.115Z,99718.18
2018-09-24T16:38:44.525Z,99725.38
2018-09-24T16:43:34.887Z,99745.28
2018-09-24T16:48:24.444Z,99757.61
2018-09-24T16:53:12.969Z,99770.64
2018-09-24T16:58:01.395Z,99801.69
2018-09-24T17:02:49.669Z,99825.52
2018-09-24T17:07:38.002Z,99848.20
2018-09-24T17:12:55.204Z,99868.09
2018-09-24T17:17:45.103Z,99884.64
2018-09-24T17:22:33.901Z,99912.99
2018-09-24T17:27:22.130Z,99951.38
2018-09-24T17:32:13.666Z,99973.16
2018-09-24T17:37:03.019Z,99999.39
2018-09-24T17:41:51.584Z,100026.87
2018-09-24T17:46:40.042Z,100075.57
2018-09-24T17:51:28.494Z,100087.64
2018-09-24T17:56:16.856Z,100108.54
2018-09-24T18:01:07.168Z,100149.02
2018-09-24T18:05:55.415Z,100162.14
2018-09-24T18:10:44.768Z,100177.93
2018-09-24T18:15:32.983Z,100191.08
2018-09-24T18:20:22.323Z,100211.72
2018-09-24T18:25:10.664Z,100219.77
2018-09-24T18:29:59.114Z,100228.98
2018-09-24T18:34:47.548Z,100223.48
2018-09-24T18:39:37.035Z,100230.05
2018-09-24T18:44:25.516Z,100224.42
2018-09-24T18:49:18.366Z,100229.03
2018-09-24T18:54:06.586Z,100231.64
2018-09-24T18:58:55.033Z,100236.24
2018-09-24T19:03:43.412Z,100249.19
2018-09-24T19:08:31.694Z,100257.44
2018-09-24T19:13:21.226Z,100276.97
2018-09-24T19:18:09.606Z,100297.30
2018-09-24T19:22:58.135Z,100325.16
2018-09-24T19:27:46.425Z,100344.41
2018-09-24T19:32:35.886Z,100357.73
2018-09-24T19:37:24.343Z,100375.16
2018-09-24T19:42:12.884Z,100388.89
2018-09-24T19:47:01.253Z,100399.09
2018-09-24T19:51:49.694Z,100408.89
2018-09-24T19:56:37.994Z,100414.48
2018-09-24T20:01:26.778Z,100436.70
2018-09-24T20:06:15.355Z,100454.91
2018-09-24T20:11:04.842Z,100466.72
2018-09-24T20:15:53.250Z,100490.08
2018-09-24T20:20:42.790Z,100482.18
2018-09-24T20:25:31.070Z,100472.98
2018-09-24T20:30:20.466Z,100488.27
2018-09-24T20:35:08.834Z,100508.16
2018-09-24T20:39:57.373Z,100540.17
2018-09-24T20:46:15.177Z,100558.25
2018-09-24T20:51:04.531Z,100552.19
2018-09-24T20:55:52.904Z,100564.84
2018-09-24T21:00:42.460Z,100588.59
2018-09-24T21:05:30.695Z,100592.77
2018-09-24T21:10:20.178Z,100596.72
2018-09-24T21:15:08.511Z,100599.36
2018-09-24T21:19:56.903Z,100608.05
2018-09-24T21:24:45.698Z,100607.13
2018-09-24T21:29:35.229Z,100632.83
2018-09-24T21:34:23.414Z,100634.23
2018-09-24T21:39:12.528Z,100631.38
2018-09-24T21:44:00.757Z,100637.52
2018-09-24T21:48:50.183Z,100649.83
2018-09-24T21:53:38.478Z,100650.61
2018-09-24T21:58:26.660Z,100666.38
2018-09-24T22:03:15.037Z,100692.45
2018-09-24T22:08:03.265Z,100703.19
2018-09-24T22:12:51.554Z,100707.75
2018-09-24T22:17:39.763Z,100715.55
2018-09-24T22:22:28.097Z,100710.63
2018-09-24T22:27:16.475Z,100724.42
2018-09-24T22:32:06.029Z,100709.98
2018-09-24T22:36:54.783Z,100711.57
2018-09-24T22:41:43.243Z,100715.11
2018-09-24T22:46:31.693Z,100734.52
2018-09-24T22:51:21.125Z,100746.70
2018-09-24T22:56:09.466Z,100741.94
2018-09-24T23:01:00.448Z,100746.47
2018-09-24T23:05:48.786Z,100760.59
2018-09-24T23:10:38.322Z,100772.35
2018-09-24T23:15:26.945Z,100775.70
2018-09-24T23:20:16.708Z,100770.05
2018-09-24T23:25:05.175Z,100743.66
2018-09-24T23:29:53.345Z,100729.34
2018-09-24T23:34:42.085Z,100770.13
2018-09-24T23:39:31.684Z,100774.00
2018-09-24T23:44:20.013Z,100762.23
2018-09-24T23:49:08.453Z,100768.58
2018-09-24T23:53:57.170Z,100779.50
2018-09-24T23:58:45.929Z,100763.30
